Time;durP1;ratioP1;P1;durP2;ratioP2;P2;SDS_P1;SDS_P2;PMS_P1;PMS_P2;Temp;Humidity;BMP_temperature;BMP_pressure;BME280_temperature;BME280_humidity;BME280_pressure;Samples;Min_cycle;Max_cycle;Signal;HPM_P1;HPM_P2
2021/06/15 00:01:23;;;;;;;13.53;7.13;;;;;;;-144.99;83.69;52162.75;5026023;28;20397;-60
2021/06/15 00:03:55;;;;;;;10.00;7.23;;;;;;;-144.99;83.48;52162.75;5027884;28;20212;-60
2021/06/15 00:06:30;;;;;;;16.57;6.80;;;;;;;-144.99;83.49;52174.97;5026799;28;20206;-60
2021/06/15 00:08:59;;;;;;;10.57;6.30;;;;;;;-144.99;83.61;52162.75;5029028;28;20232;-60
2021/06/15 00:11:26;;;;;;;14.70;6.63;;;;;;;-144.99;83.31;52160.72;5029148;28;20218;-59
2021/06/15 00:13:55;;;;;;;12.57;5.30;;;;;;;-144.99;83.64;52215.75;5028877;28;20214;-61
2021/06/15 00:16:23;;;;;;;11.77;5.37;;;;;;;-144.99;83.58;52213.69;5029104;28;20216;-59
2021/06/15 00:18:50;;;;;;;15.47;6.20;;;;;;;-144.99;83.37;52183.13;5025569;28;20237;-60
2021/06/15 00:21:16;;;;;;;19.77;7.80;;;;;;;-144.99;83.18;52191.28;5029201;28;20205;-59
2021/06/15 00:23:46;;;;;;;13.03;6.47;;;;;;;-144.99;83.23;52174.97;5026026;28;20210;-61
2021/06/15 00:26:12;;;;;;;12.67;5.13;;;;;;;-144.99;83.31;52183.13;5025308;28;20616;-62
2021/06/15 00:28:39;;;;;;;12.77;5.83;;;;;;;-144.99;83.09;52160.72;5028278;28;20222;-61
2021/06/15 00:31:06;;;;;;;9.20;6.07;;;;;;;-144.99;83.18;52185.16;5027004;28;20206;-61
2021/06/15 00:33:40;;;;;;;10.40;4.07;;;;;;;-144.99;83.06;52201.47;5025490;28;20555;-61
2021/06/15 00:36:07;;;;;;;8.83;5.20;;;;;;;-144.99;83.24;52199.44;5025861;28;20212;-61
2021/06/15 00:38:33;;;;;;;14.23;5.63;;;;;;;-144.99;83.19;52183.13;5026650;28;20240;-61
2021/06/15 00:41:03;;;;;;;17.60;5.47;;;;;;;-144.99;82.97;52193.31;5026344;28;20682;-61
2021/06/15 00:43:32;;;;;;;11.27;5.20;;;;;;;-144.99;82.88;52193.31;5025141;28;20207;-61
2021/06/15 00:45:59;;;;;;;8.67;3.80;;;;;;;-144.99;83.19;52211.66;5023446;28;20565;-61
2021/06/15 00:48:33;;;;;;;10.70;5.13;;;;;;;-144.99;83.22;52187.19;5025116;28;20359;-61
2021/06/15 00:51:05;;;;;;;8.80;4.57;;;;;;;-144.99;83.06;52179.06;5023577;28;20706;-62
2021/06/15 00:53:35;;;;;;;8.27;6.00;;;;;;;-144.99;83.09;52183.13;5021989;28;20751;-61
2021/06/15 00:56:08;;;;;;;8.90;4.90;;;;;;;-144.99;83.25;52207.59;5024848;28;20210;-61
2021/06/15 00:58:35;;;;;;;13.33;6.23;;;;;;;-144.99;83.22;52197.41;5023960;28;20340;-62
2021/06/15 01:01:02;;;;;;;8.47;4.63;;;;;;;-144.99;83.20;52191.28;5025737;28;20589;-63
2021/06/15 01:03:32;;;;;;;7.47;4.13;;;;;;;-144.99;83.22;52219.81;5025024;28;20206;-62
2021/06/15 01:06:14;;;;;;;9.17;5.20;;;;;;;-144.99;83.29;52199.44;5025448;28;20208;-62
2021/06/15 01:08:48;;;;;;;14.93;5.23;;;;;;;-144.99;83.17;52197.41;5025931;28;20236;-63
2021/06/15 01:11:31;;;;;;;12.67;5.07;;;;;;;-144.99;83.06;52227.97;5025820;28;20675;-62
2021/06/15 01:14:10;;;;;;;17.73;4.87;;;;;;;-144.99;83.04;52195.34;5024322;28;20229;-64
2021/06/15 01:16:42;;;;;;;11.70;6.87;;;;;;;-144.99;83.01;52170.91;5025729;28;20229;-62
2021/06/15 01:19:26;;;;;;;7.73;4.07;;;;;;;-144.99;83.02;52234.09;5025619;28;20806;-62
2021/06/15 01:22:09;;;;;;;9.53;4.23;;;;;;;-144.99;82.82;52193.31;5026034;28;20206;-62
2021/06/15 01:24:44;;;;;;;11.50;3.83;;;;;;;-144.99;82.94;52166.81;5025280;28;20206;-62
2021/06/15 01:27:50;;;;;;;8.27;3.70;;;;;;;-144.99;83.15;52195.34;5026985;28;20296;-61
2021/06/15 01:30:24;;;;;;;9.80;3.60;;;;;;;-144.99;82.83;52195.34;5008497;28;20328;-61
2021/06/15 01:33:00;;;;;;;13.43;7.47;;;;;;;-144.99;82.66;52199.44;5026967;28;20220;-59
2021/06/15 01:35:30;;;;;;;9.90;4.63;;;;;;;-144.99;82.69;52146.44;5028208;28;20227;-59
2021/06/15 01:38:01;;;;;;;18.10;4.73;;;;;;;-144.99;83.06;52211.66;5030866;28;20224;-59
2021/06/15 01:43:25;;;;;;;10.97;5.37;;;;;;;-144.99;82.81;52205.53;5027284;28;20206;-62
2021/06/15 01:45:54;;;;;;;17.20;4.27;;;;;;;-144.99;82.81;52219.81;5027924;28;20213;-60
2021/06/15 01:48:27;;;;;;;8.17;3.60;;;;;;;-144.99;82.93;52211.66;5028403;28;20230;-61
2021/06/15 01:50:56;;;;;;;20.20;5.10;;;;;;;-144.99;82.95;52195.34;5026756;28;20229;-61
2021/06/15 01:53:24;;;;;;;10.20;4.03;;;;;;;-144.99;83.13;52203.50;5029591;28;20538;-62
2021/06/15 01:55:58;;;;;;;12.97;3.57;;;;;;;-144.99;82.92;52195.34;5027562;28;20206;-62
2021/06/15 01:58:30;;;;;;;11.20;4.90;;;;;;;-144.99;83.13;52227.97;5028890;28;20658;-61
2021/06/15 02:01:02;;;;;;;12.47;5.83;;;;;;;-144.99;82.96;52191.28;5028130;28;20213;-62
2021/06/15 02:03:30;;;;;;;11.87;3.33;;;;;;;-144.99;82.95;52205.53;5030184;28;20214;-61
2021/06/15 02:06:01;;;;;;;17.17;4.97;;;;;;;-144.99;82.54;52205.53;5028901;28;20213;-62
2021/06/15 02:08:30;;;;;;;7.40;3.23;;;;;;;-144.99;82.41;52205.53;5028807;28;20226;-64
2021/06/15 02:13:46;;;;;;;8.57;3.70;;;;;;;-144.99;82.23;52162.75;5028881;28;20217;-62
2021/06/15 02:16:19;;;;;;;12.43;3.83;;;;;;;-144.99;81.84;52195.34;5029221;28;20217;-61
2021/06/15 02:18:53;;;;;;;7.03;2.63;;;;;;;-144.99;81.59;52195.34;5028447;28;20240;-61
2021/06/15 02:21:21;;;;;;;13.67;3.93;;;;;;;-144.99;81.78;52219.81;5024971;28;20752;-64
2021/06/15 02:23:53;;;;;;;6.20;2.67;;;;;;;-144.99;81.40;52179.06;5025253;28;20634;-64
2021/06/15 02:26:22;;;;;;;13.33;3.43;;;;;;;-144.99;81.22;52193.31;5027979;28;20229;-64
2021/06/15 02:31:37;;;;;;;9.37;2.10;;;;;;;-144.99;81.62;52215.75;5026113;28;20234;-63
2021/06/15 02:34:07;;;;;;;5.70;2.60;;;;;;;-144.99;81.56;52211.66;5023713;28;20626;-62
2021/06/15 02:36:42;;;;;;;7.27;3.17;;;;;;;-144.99;81.62;52232.03;5028696;28;20229;-63
2021/06/15 02:39:12;;;;;;;6.67;2.33;;;;;;;-144.99;81.51;52236.13;5027301;28;21101;-65
2021/06/15 02:41:44;;;;;;;8.23;2.73;;;;;;;-144.99;81.63;52223.88;5026107;28;20239;-63
2021/06/15 02:44:18;;;;;;;10.07;4.17;;;;;;;-144.99;81.70;52223.88;5025751;28;20209;-65
2021/06/15 02:46:52;;;;;;;9.03;3.20;;;;;;;-144.99;81.77;52211.66;5027232;28;20205;-64
2021/06/15 02:49:28;;;;;;;9.77;2.13;;;;;;;-144.99;81.59;52170.91;5025446;28;20236;-62
2021/06/15 02:52:06;;;;;;;13.30;4.43;;;;;;;-144.99;81.46;52223.88;5026614;28;20204;-63
2021/06/15 02:54:36;;;;;;;11.80;2.80;;;;;;;-144.99;81.51;52232.03;5025852;28;20674;-62
2021/06/15 02:57:04;;;;;;;11.70;2.87;;;;;;;-144.99;81.71;52217.78;5027008;28;20212;-64
2021/06/15 02:59:31;;;;;;;10.97;2.73;;;;;;;-144.99;81.58;52234.09;5026996;28;20257;-64
2021/06/15 03:02:05;;;;;;;12.03;2.43;;;;;;;-144.99;81.70;52219.81;5028203;28;20236;-62
2021/06/15 03:04:34;;;;;;;6.30;2.50;;;;;;;-144.99;81.42;52195.34;5026392;28;20201;-62
2021/06/15 03:07:02;;;;;;;10.13;2.57;;;;;;;-144.99;81.62;52193.31;5026596;28;20633;-63
2021/06/15 03:09:28;;;;;;;11.87;2.80;;;;;;;-144.99;81.54;52199.44;5025695;28;20222;-61
2021/06/15 03:12:03;;;;;;;8.87;2.67;;;;;;;-144.99;81.36;52223.88;5028534;28;20241;-62
2021/06/15 03:14:31;;;;;;;11.90;2.67;;;;;;;-144.99;81.16;52213.69;5028542;28;20221;-62
2021/06/15 03:17:04;;;;;;;14.80;2.87;;;;;;;-144.99;81.17;52195.34;5026268;28;20463;-63
2021/06/15 03:19:36;;;;;;;10.93;2.87;;;;;;;-144.99;81.00;52232.03;5029060;28;20238;-63
2021/06/15 03:22:09;;;;;;;10.07;2.37;;;;;;;-144.99;81.16;52225.94;5027290;28;20211;-63
2021/06/15 03:24:43;;;;;;;10.57;3.23;;;;;;;-144.99;81.03;52203.50;5027687;28;20211;-62
2021/06/15 03:27:16;;;;;;;12.87;2.10;;;;;;;-144.99;81.04;52223.88;5026588;28;20205;-63
2021/06/15 03:29:47;;;;;;;9.10;2.20;;;;;;;-144.99;80.92;52252.44;5027728;28;20231;-63
2021/06/15 03:32:21;;;;;;;8.97;1.77;;;;;;;-144.99;80.81;52258.53;5027321;28;20682;-62
2021/06/15 03:34:53;;;;;;;10.20;2.07;;;;;;;-144.99;80.75;52236.13;5026610;28;20271;-63
2021/06/15 03:37:26;;;;;;;14.77;2.77;;;;;;;-144.99;80.73;52240.19;5025138;28;20632;-62
2021/06/15 03:39:55;;;;;;;12.90;2.97;;;;;;;-144.99;80.57;52248.34;5026671;28;20695;-64
2021/06/15 03:42:25;;;;;;;5.87;1.93;;;;;;;-144.99;80.32;52185.16;5027045;28;20194;-61
2021/06/15 03:44:57;;;;;;;7.90;1.87;;;;;;;-144.99;80.36;52195.34;5027634;28;20206;-62
2021/06/15 03:47:30;;;;;;;10.07;2.30;;;;;;;-144.99;79.99;52248.34;5026394;28;20666;-62
2021/06/15 03:50:04;;;;;;;4.13;2.07;;;;;;;-144.99;80.06;52227.97;5025687;28;20224;-63
2021/06/15 03:52:35;;;;;;;10.67;1.83;;;;;;;-144.99;80.06;52230.00;5026589;28;20222;-63
2021/06/15 03:55:09;;;;;;;5.40;2.40;;;;;;;-144.99;79.72;52207.59;5026613;28;20679;-63
2021/06/15 03:57:41;;;;;;;8.97;2.23;;;;;;;-144.99;79.87;52232.03;5025805;28;20218;-60
2021/06/15 04:00:09;;;;;;;9.13;2.00;;;;;;;-144.99;79.65;52264.66;5026232;28;20252;-60
2021/06/15 04:02:39;;;;;;;8.23;2.33;;;;;;;-144.99;79.72;52211.66;5026353;28;20207;-61
2021/06/15 04:05:10;;;;;;;11.03;3.10;;;;;;;-144.99;79.68;52232.03;5025402;28;20214;-60
2021/06/15 04:07:40;;;;;;;7.83;2.00;;;;;;;-144.99;79.61;52227.97;5024545;28;20204;-61
2021/06/15 04:10:12;;;;;;;4.37;2.33;;;;;;;-144.99;79.85;52244.28;5026395;28;20659;-61
2021/06/15 04:12:42;;;;;;;10.73;2.70;;;;;;;-144.99;79.68;52197.41;5026940;28;20490;-62
2021/06/15 04:15:11;;;;;;;12.93;2.13;;;;;;;-144.99;79.56;52223.88;5027963;28;20218;-63
2021/06/15 04:17:45;;;;;;;9.87;2.67;;;;;;;-144.99;79.80;52203.50;5023235;28;20551;-62
2021/06/15 04:20:20;;;;;;;6.33;2.33;;;;;;;-144.99;79.97;52215.75;5022326;28;20239;-60
2021/06/15 04:22:48;;;;;;;9.57;3.80;;;;;;;-144.99;80.14;52223.88;5038291;22;20259;-60
2021/06/15 04:25:25;;;;;;;6.43;2.63;;;;;;;-144.99;79.97;52236.13;5017723;28;20603;-60
2021/06/15 04:27:52;;;;;;;5.23;2.40;;;;;;;-144.99;79.83;52248.34;5026781;28;20237;-59
2021/06/15 04:30:23;;;;;;;7.27;5.73;;;;;;;-144.99;79.99;52262.63;5013691;28;20217;-59
2021/06/15 04:32:55;;;;;;;14.23;3.93;;;;;;;-144.99;79.92;52244.28;5020052;28;20212;-60
2021/06/15 04:35:32;;;;;;;8.20;2.10;;;;;;;-144.99;79.93;52223.88;5018207;28;20215;-59
2021/06/15 04:38:02;;;;;;;9.07;3.93;;;;;;;-144.99;79.78;52236.13;5019518;28;20237;-59
2021/06/15 04:40:36;;;;;;;7.77;2.47;;;;;;;-144.99;79.50;52187.19;5022861;28;20224;-60
2021/06/15 04:43:16;;;;;;;5.67;1.97;;;;;;;-144.99;78.98;52207.59;5023335;28;20201;-60
2021/06/15 04:45:48;;;;;;;7.67;1.97;;;;;;;-144.99;78.82;52195.34;5018072;28;20205;-60
2021/06/15 04:48:26;;;;;;;8.63;2.33;;;;;;;-144.99;79.08;52203.50;5020471;28;20225;-60
2021/06/15 04:51:00;;;;;;;6.03;2.70;;;;;;;-144.99;78.99;52207.59;5011421;28;20277;-58
2021/06/15 04:53:30;;;;;;;9.00;1.87;;;;;;;-144.99;78.88;52199.44;5018903;28;20202;-58
2021/06/15 04:55:59;;;;;;;10.60;2.13;;;;;;;-144.99;78.65;52215.75;5016751;28;20326;-59
2021/06/15 04:58:32;;;;;;;7.00;1.97;;;;;;;-144.99;78.53;52183.13;5014928;28;20231;-59
2021/06/15 05:01:03;;;;;;;9.43;2.60;;;;;;;-144.99;78.96;52183.13;5027834;28;20394;-63
2021/06/15 05:03:34;;;;;;;8.73;2.30;;;;;;;-144.99;78.52;52236.13;5022837;28;20586;-68
2021/06/15 05:06:04;;;;;;;10.30;2.70;;;;;;;-144.99;78.42;52191.28;5021210;28;20691;-64
2021/06/15 05:08:35;;;;;;;6.10;2.27;;;;;;;-144.99;78.02;52215.75;5016609;28;20230;-65
2021/06/15 05:11:04;;;;;;;8.03;3.27;;;;;;;-144.99;77.90;52199.44;5018911;28;20253;-66
2021/06/15 05:13:36;;;;;;;10.30;2.70;;;;;;;-144.99;77.49;52240.19;5017616;28;20217;-66
2021/06/15 05:16:05;;;;;;;7.90;3.10;;;;;;;-144.99;77.33;52199.44;3974966;28;10000816;-65
2021/06/15 05:18:37;;;;;;;3.90;1.63;;;;;;;-144.99;76.98;52195.34;5013425;28;20229;-65
2021/06/15 05:21:13;;;;;;;13.17;2.10;;;;;;;-144.99;76.98;52174.97;5013974;28;20221;-65
2021/06/15 05:23:44;;;;;;;9.50;2.77;;;;;;;-144.99;76.69;52227.97;5015983;28;20221;-65
2021/06/15 05:26:15;;;;;;;6.03;1.93;;;;;;;-144.99;76.43;52203.50;5018238;28;20210;-64
2021/06/15 05:28:42;;;;;;;10.37;3.23;;;;;;;-144.99;75.92;52191.28;5013951;28;20244;-63
2021/06/15 05:31:08;;;;;;;10.27;2.00;;;;;;;-144.99;75.56;52187.19;5012745;28;20207;-65
2021/06/15 05:33:36;;;;;;;5.43;2.50;;;;;;;-144.99;75.41;52162.75;5015548;28;20321;-65
2021/06/15 05:36:07;;;;;;;5.97;2.60;;;;;;;-144.99;75.22;52207.59;5015594;28;20582;-64
2021/06/15 05:38:33;;;;;;;5.37;2.30;;;;;;;-144.99;74.92;52191.28;5013270;28;20236;-65
2021/06/15 05:41:00;;;;;;;11.80;4.33;;;;;;;-144.99;74.27;52199.44;5016044;28;20241;-66
2021/06/15 05:43:27;;;;;;;6.43;1.90;;;;;;;-144.99;73.95;52195.34;5018945;28;20241;-65
2021/06/15 05:45:56;;;;;;;9.90;2.57;;;;;;;-144.99;73.40;52170.91;5014753;28;20199;-64
2021/06/15 05:48:22;;;;;;;8.80;1.87;;;;;;;-144.99;73.26;52199.44;5015094;28;20329;-65
2021/06/15 05:50:50;;;;;;;7.20;2.23;;;;;;;-144.99;72.77;52187.19;5011496;28;20198;-65
2021/06/15 05:53:20;;;;;;;4.67;2.00;;;;;;;-144.99;72.64;52191.28;5017966;28;20562;-64
2021/06/15 05:55:49;;;;;;;11.67;2.20;;;;;;;-144.99;72.08;52185.16;5014069;28;20206;-64
2021/06/15 05:58:21;;;;;;;7.50;1.87;;;;;;;-144.99;71.45;52187.19;5017305;28;20237;-65
2021/06/15 06:00:49;;;;;;;13.10;4.53;;;;;;;-144.99;71.23;52183.13;5020899;28;20222;-65
2021/06/15 06:03:22;;;;;;;11.50;3.53;;;;;;;-144.99;70.82;52179.06;5014698;28;20276;-64
2021/06/15 06:08:34;;;;;;;6.13;1.60;;;;;;;-144.99;69.36;52166.81;5016367;28;20276;-66
2021/06/15 06:11:01;;;;;;;6.70;2.43;;;;;;;-144.99;68.27;52179.06;5011137;28;20257;-64
2021/06/15 06:13:28;;;;;;;9.73;2.07;;;;;;;-144.99;67.32;52170.91;5012233;28;20206;-64
2021/06/15 06:15:57;;;;;;;8.27;2.13;;;;;;;-144.99;66.70;52168.84;5021089;28;20210;-64
2021/06/15 06:18:26;;;;;;;8.50;2.43;;;;;;;-144.99;65.82;52166.81;5020654;28;20238;-66
2021/06/15 06:20:55;;;;;;;13.80;2.73;;;;;;;-144.99;65.70;52150.53;5016366;28;20236;-65
2021/06/15 06:23:28;;;;;;;11.67;3.93;;;;;;;-144.99;65.42;52158.66;5020644;28;20211;-66
2021/06/15 06:25:54;;;;;;;9.67;2.20;;;;;;;-144.99;65.02;52142.38;5017387;28;20232;-67
2021/06/15 06:28:22;;;;;;;13.00;3.53;;;;;;;-144.99;65.10;52172.94;5016266;28;20230;-68
2021/06/15 06:31:01;;;;;;;8.20;1.77;;;;;;;-144.99;65.21;52203.50;5023182;28;20457;-66
2021/06/15 06:33:30;;;;;;;3.97;1.60;;;;;;;-144.99;65.63;52195.34;5017762;28;20267;-67
2021/06/15 06:36:04;;;;;;;3.07;1.53;;;;;;;-144.99;65.25;52191.28;5021514;28;20245;-66
2021/06/15 06:38:31;;;;;;;6.37;1.83;;;;;;;-144.99;65.06;52179.06;5018029;28;20240;-66
2021/06/15 06:40:58;;;;;;;10.23;1.77;;;;;;;-144.99;65.00;52191.28;5021781;28;20228;-67
2021/06/15 06:46:07;;;;;;;5.47;1.10;;;;;;;-144.99;64.17;52158.66;5019292;28;20206;-66
2021/06/15 06:48:34;;;;;;;4.30;2.17;;;;;;;-144.99;63.82;52154.59;5016993;28;20218;-66
2021/06/15 06:51:05;;;;;;;8.07;1.60;;;;;;;-144.99;63.09;52162.75;5023624;28;20210;-65
2021/06/15 06:53:36;;;;;;;7.47;2.80;;;;;;;-144.99;62.84;52174.97;5028539;28;20711;-66
2021/06/15 06:56:05;;;;;;;10.93;1.97;;;;;;;-144.99;62.41;52166.81;5032033;28;20272;-67
2021/06/15 06:58:37;;;;;;;3.70;1.30;;;;;;;-144.99;61.77;52166.81;5030184;28;20225;-66
2021/06/15 07:01:05;;;;;;;9.83;3.33;;;;;;;-144.99;61.82;52179.06;5027206;28;20698;-68
2021/06/15 07:03:34;;;;;;;5.17;1.90;;;;;;;-144.99;61.44;52146.44;5031086;28;20221;-66
2021/06/15 07:06:05;;;;;;;7.97;1.47;;;;;;;-144.99;61.23;52162.75;5023169;28;20660;-66
2021/06/15 07:08:35;;;;;;;5.97;1.60;;;;;;;-144.99;60.57;52162.75;5029100;28;20230;-68
2021/06/15 07:11:04;;;;;;;4.07;1.70;;;;;;;-144.99;60.10;52158.66;5031744;28;20213;-65
2021/06/15 07:13:34;;;;;;;18.00;4.27;;;;;;;-144.99;59.96;52154.59;5033492;28;20212;-65
2021/06/15 07:16:03;;;;;;;8.10;2.50;;;;;;;-144.99;59.00;52172.94;5028749;28;20214;-67
2021/06/15 07:18:31;;;;;;;5.80;2.77;;;;;;;-144.99;58.40;52121.97;5029724;28;20244;-65
2021/06/15 07:21:03;;;;;;;6.17;1.73;;;;;;;-144.99;57.97;52195.34;5026928;28;20337;-66
2021/06/15 07:23:34;;;;;;;4.33;1.63;;;;;;;-144.99;57.15;52142.38;5029392;28;20690;-66
2021/06/15 07:26:01;;;;;;;10.00;4.00;;;;;;;-144.99;56.45;52128.09;5029396;28;20238;-66
2021/06/15 07:28:28;;;;;;;3.90;1.30;;;;;;;-144.99;55.81;52117.91;5015151;28;20320;-67
2021/06/15 07:30:57;;;;;;;9.33;2.07;;;;;;;-144.99;55.22;52138.28;5027174;28;20208;-64
2021/06/15 07:33:24;;;;;;;6.03;1.43;;;;;;;-144.99;54.71;52093.44;5028533;28;20205;-63
2021/06/15 07:35:54;;;;;;;4.80;1.23;;;;;;;-144.99;54.41;52132.19;5028282;28;20222;-64
2021/06/15 07:38:23;;;;;;;5.80;1.37;;;;;;;-144.99;54.42;52134.22;5028765;28;20225;-64
2021/06/15 07:40:55;;;;;;;4.07;1.33;;;;;;;-144.99;54.50;52158.66;5025490;28;20313;-64
2021/06/15 07:43:25;;;;;;;5.83;1.27;;;;;;;-144.99;54.47;52134.22;5029157;28;20220;-64
2021/06/15 07:45:51;;;;;;;6.47;1.77;;;;;;;-144.99;54.55;52109.75;5026671;28;20218;-64
2021/06/15 07:48:18;;;;;;;6.97;1.30;;;;;;;-144.99;54.36;52136.25;5027638;28;20229;-64
2021/06/15 07:50:47;;;;;;;6.30;1.90;;;;;;;-144.99;53.87;52130.13;5026658;28;20311;-64
2021/06/15 07:53:19;;;;;;;11.30;1.77;;;;;;;-144.99;53.75;52134.22;5028785;28;20212;-63
2021/06/15 07:55:46;;;;;;;5.13;2.03;;;;;;;-144.99;53.32;52105.69;5028599;28;20219;-63
2021/06/15 07:58:16;;;;;;;5.13;1.90;;;;;;;-144.99;53.91;52154.59;5028413;28;20229;-63
2021/06/15 08:00:48;;;;;;;6.90;1.83;;;;;;;-144.99;54.35;52158.66;5026963;28;20328;-64
2021/06/15 08:03:18;;;;;;;5.27;2.23;;;;;;;-144.99;54.30;52152.56;5025966;28;20577;-63
2021/06/15 08:05:47;;;;;;;5.13;1.50;;;;;;;-144.99;53.85;52162.75;5026901;28;20209;-63
2021/06/15 08:08:16;;;;;;;8.53;1.70;;;;;;;-144.99;53.94;52130.13;5028440;28;20243;-66
2021/06/15 08:10:43;;;;;;;3.30;1.67;;;;;;;-144.99;53.76;52181.09;5024995;28;20209;-63
2021/06/15 08:13:14;;;;;;;4.17;2.20;;;;;;;-144.99;53.66;52146.44;5026532;28;20209;-65
2021/06/15 08:15:41;;;;;;;4.83;1.10;;;;;;;-144.99;53.90;52179.06;5021289;28;20215;-65
2021/06/15 08:18:10;;;;;;;2.97;1.47;;;;;;;-144.99;53.50;52215.75;5024897;28;20453;-65
2021/06/15 08:20:37;;;;;;;4.03;1.40;;;;;;;-144.99;53.85;52170.91;5027437;28;20719;-65
2021/06/15 08:23:07;;;;;;;5.17;1.17;;;;;;;-144.99;54.06;52121.97;5026862;28;20219;-65
2021/06/15 08:25:33;;;;;;;4.67;1.67;;;;;;;-144.99;53.87;52142.38;5028051;28;20215;-65
2021/06/15 08:28:08;;;;;;;6.33;2.40;;;;;;;-144.99;53.75;52134.22;5027533;28;20240;-66
2021/06/15 08:30:39;;;;;;;8.13;3.20;;;;;;;-144.99;53.71;52166.81;5027922;28;20216;-67
2021/06/15 08:33:06;;;;;;;8.53;2.33;;;;;;;-144.99;53.52;52158.66;5027952;28;20216;-67
2021/06/15 08:35:34;;;;;;;7.40;1.60;;;;;;;-144.99;53.31;52134.22;5027296;28;20225;-66
2021/06/15 08:38:04;;;;;;;4.80;1.50;;;;;;;-144.99;53.00;52142.38;5027061;28;20229;-65
2021/06/15 08:40:34;;;;;;;10.77;4.77;;;;;;;-144.99;52.69;52111.78;5027243;28;20839;-67
2021/06/15 08:43:00;;;;;;;4.80;1.27;;;;;;;-144.99;52.58;52138.28;5025692;28;20401;-64
2021/06/15 08:45:30;;;;;;;1.83;1.40;;;;;;;-144.99;51.62;52119.94;5027554;28;20583;-66
2021/06/15 08:48:00;;;;;;;4.03;1.27;;;;;;;-144.99;51.52;52113.84;5022202;28;20721;-66
2021/06/15 08:50:36;;;;;;;8.43;1.87;;;;;;;-144.99;51.25;52142.38;5022119;28;20686;-67
2021/06/15 08:53:07;;;;;;;5.87;2.07;;;;;;;-144.99;50.25;52091.41;5022929;28;20210;-66
2021/06/15 08:55:47;;;;;;;8.17;1.23;;;;;;;-144.99;48.38;52121.97;5027083;28;20275;-66
2021/06/15 08:58:39;;;;;;;3.73;2.47;;;;;;;-144.99;49.02;52152.56;5027149;28;20316;-65
2021/06/15 09:01:09;;;;;;;5.00;1.73;;;;;;;-144.99;48.91;52101.59;5026927;28;20230;-65
2021/06/15 09:03:37;;;;;;;5.30;2.30;;;;;;;-144.99;48.64;52166.81;5020513;28;20289;-65
2021/06/15 09:06:07;;;;;;;4.90;1.60;;;;;;;-144.99;48.50;52138.28;5027419;28;20206;-65
2021/06/15 09:08:54;;;;;;;5.77;1.53;;;;;;;-144.99;48.94;52126.06;5028461;28;20233;-65
2021/06/15 09:11:27;;;;;;;2.97;0.90;;;;;;;-144.99;48.97;52150.53;5031048;28;20664;-65
2021/06/15 09:13:58;;;;;;;6.07;1.57;;;;;;;-144.99;48.52;52134.22;5024963;28;20217;-65
2021/06/15 09:16:33;;;;;;;8.43;1.70;;;;;;;-144.99;48.86;52121.97;5020044;28;20202;-64
2021/06/15 09:19:17;;;;;;;4.63;2.90;;;;;;;-144.99;48.67;52146.44;5026957;28;20239;-65
2021/06/15 09:21:47;;;;;;;11.90;1.43;;;;;;;-144.99;48.67;52154.59;5027327;28;20312;-66
2021/06/15 09:24:23;;;;;;;2.37;1.07;;;;;;;-144.99;48.37;52109.75;5027359;28;20619;-65
2021/06/15 09:27:06;;;;;;;6.63;1.70;;;;;;;-144.99;48.57;52109.75;5026179;28;20214;-64
2021/06/15 09:29:47;;;;;;;4.77;1.50;;;;;;;-144.99;48.44;52142.38;5027303;28;20805;-63
2021/06/15 09:32:19;;;;;;;6.83;2.13;;;;;;;-144.99;48.77;52109.75;5019584;28;20693;-64
2021/06/15 09:34:56;;;;;;;7.60;1.23;;;;;;;-144.99;48.57;52101.59;5026962;28;20587;-64
2021/06/15 09:37:32;;;;;;;2.87;0.90;;;;;;;-144.99;48.08;52126.06;5026062;28;20301;-65
2021/06/15 09:40:00;;;;;;;3.83;1.40;;;;;;;-144.99;47.37;52093.44;5026695;28;20214;-65
2021/06/15 09:45:18;;;;;;;4.00;1.77;;;;;;;-144.99;47.44;52105.69;5026858;28;20218;-65
2021/06/15 09:47:45;;;;;;;5.27;1.40;;;;;;;-144.99;47.80;52142.38;5026373;28;20761;-64
2021/06/15 09:50:17;;;;;;;5.57;1.17;;;;;;;-144.99;48.51;52101.59;5026805;28;20207;-65
2021/06/15 09:52:47;;;;;;;5.40;1.77;;;;;;;-144.99;49.03;52109.75;5028774;28;20289;-65
2021/06/15 09:55:14;;;;;;;11.63;4.03;;;;;;;-144.99;48.94;52101.59;5029711;28;20216;-65
2021/06/15 09:57:44;;;;;;;9.23;3.07;;;;;;;-144.99;49.22;52126.06;5027159;28;20301;-66
2021/06/15 10:00:14;;;;;;;7.37;2.73;;;;;;;-144.99;48.90;52107.72;5020839;28;20211;-65
2021/06/15 10:02:58;;;;;;;8.50;2.70;;;;;;;-144.99;49.59;52121.97;5026264;28;20227;-66
2021/06/15 10:05:37;;;;;;;12.90;6.13;;;;;;;-144.99;49.63;52142.38;5029519;28;20210;-65
2021/06/15 10:08:05;;;;;;;16.30;6.23;;;;;;;-144.99;49.54;52105.69;5028258;28;20227;-65
2021/06/15 10:10:38;;;;;;;10.60;3.90;;;;;;;-144.99;49.50;52138.28;5029696;28;20211;-65
2021/06/15 10:13:07;;;;;;;10.83;3.40;;;;;;;-144.99;49.26;52097.53;5030699;28;20215;-66
2021/06/15 10:15:43;;;;;;;6.63;2.73;;;;;;;-144.99;48.80;52083.25;5028391;28;20664;-65
2021/06/15 10:18:17;;;;;;;7.53;2.43;;;;;;;-144.99;48.67;52126.06;5029573;28;20234;-65
2021/06/15 10:20:48;;;;;;;10.90;1.93;;;;;;;-144.99;48.63;52113.84;5029751;28;20219;-64
2021/06/15 10:23:19;;;;;;;3.83;1.43;;;;;;;-144.99;47.90;52058.81;5029596;28;20607;-65
2021/06/15 10:25:48;;;;;;;6.50;1.77;;;;;;;-144.99;47.91;52121.97;5025185;28;20209;-65
2021/06/15 10:28:15;;;;;;;6.03;2.17;;;;;;;-144.99;47.28;52089.38;5029162;28;20240;-66
2021/06/15 10:30:47;;;;;;;6.97;1.40;;;;;;;-144.99;46.69;52050.66;5029809;28;20225;-66
2021/06/15 10:33:17;;;;;;;6.33;2.33;;;;;;;-144.99;45.55;51985.44;5029464;28;20249;-64
2021/06/15 10:35:48;;;;;;;3.57;1.50;;;;;;;-144.99;45.04;52040.47;5033541;28;20205;-63
2021/06/15 10:38:39;;;;;;;5.37;2.53;;;;;;;-144.99;44.17;52044.53;5032296;28;20232;-63
2021/06/15 10:41:20;;;;;;;4.40;1.43;;;;;;;-144.99;44.26;52064.91;5030876;28;20210;-63
2021/06/15 10:43:54;;;;;;;5.60;1.10;;;;;;;-144.99;45.17;52126.06;5023117;28;20608;-63
2021/06/15 10:46:42;;;;;;;3.27;1.27;;;;;;;-144.99;45.34;52101.59;5035214;28;20695;-66
2021/06/15 10:49:11;;;;;;;7.33;1.93;;;;;;;-144.99;44.67;52056.78;5035184;28;20231;-66
2021/06/15 10:51:57;;;;;;;5.17;1.13;;;;;;;-144.99;44.55;52036.38;5034273;28;20202;-65
2021/06/15 10:54:50;;;;;;;5.00;1.43;;;;;;;-144.99;43.50;52016.00;5037054;28;20297;-67
2021/06/15 10:57:28;;;;;;;8.47;1.90;;;;;;;-144.99;42.97;52052.69;5029688;28;20664;-68
2021/06/15 11:00:09;;;;;;;3.97;1.00;;;;;;;-144.99;42.69;52081.22;5026467;28;20696;-65
2021/06/15 11:02:43;;;;;;;3.83;1.00;;;;;;;-144.99;43.41;52097.53;5036655;28;20557;-66
2021/06/15 11:08:17;;;;;;;6.80;1.43;;;;;;;-144.99;43.55;52075.09;5026537;28;20230;-68
2021/06/15 11:10:53;;;;;;;7.70;1.80;;;;;;;-144.99;42.80;52020.09;5030347;28;20695;-68
2021/06/15 11:13:35;;;;;;;6.37;2.00;;;;;;;-144.99;42.40;52056.78;5031204;28;20674;-68
2021/06/15 11:16:05;;;;;;;5.13;1.43;;;;;;;-144.99;41.78;52044.53;5023278;28;20210;-67
2021/06/15 11:18:37;;;;;;;2.97;0.73;;;;;;;-144.99;41.38;51991.56;5026879;28;20236;-68
2021/06/15 11:21:27;;;;;;;3.60;1.40;;;;;;;-144.99;42.07;52052.69;5028396;28;20209;-69
2021/06/15 11:24:21;;;;;;;2.53;1.07;;;;;;;-144.99;42.40;52107.72;5028890;28;20236;-68
2021/06/15 11:26:48;;;;;;;4.87;1.13;;;;;;;-144.99;42.95;52064.91;5027154;28;20217;-67
2021/06/15 11:29:33;;;;;;;5.43;1.13;;;;;;;-144.99;42.22;52007.84;5024187;28;20646;-69
2021/06/15 11:32:20;;;;;;;6.97;1.33;;;;;;;-144.99;41.75;52032.31;5024728;28;20294;-67
2021/06/15 11:35:19;;;;;;;4.20;2.27;;;;;;;-144.99;41.28;51999.69;5028282;28;20572;-67
2021/06/15 11:37:54;;;;;;;4.57;1.70;;;;;;;-144.99;40.54;51991.56;5019934;28;20839;-68
2021/06/15 11:40:27;;;;;;;3.53;0.93;;;;;;;-144.99;40.96;51971.16;5027035;28;20210;-68
2021/06/15 11:42:56;;;;;;;3.63;0.80;;;;;;;-144.99;40.05;51936.53;5027896;28;20622;-68
2021/06/15 11:45:31;;;;;;;4.87;1.83;;;;;;;-144.99;40.06;51971.16;5027346;28;20771;-67
2021/06/15 11:48:19;;;;;;;8.43;1.37;;;;;;;-144.99;40.29;52016.00;5027673;28;20231;-68
2021/06/15 11:50:51;;;;;;;5.07;2.80;;;;;;;-144.99;40.38;52077.16;5027668;28;20231;-67
2021/06/15 11:53:20;;;;;;;4.10;1.00;;;;;;;-144.99;40.66;51987.47;5028622;28;20223;-69
2021/06/15 11:55:51;;;;;;;6.17;4.43;;;;;;;-144.99;41.02;51958.94;5027811;28;20224;-67